Terminal Aerodrome Forecast
Issued by NWS Blacksburg, VA

Current Version | Previous Version | Text Only | Print | Product List | Glossary Off
Versions: 1 2 3 4 5 6 7 8 9 10 11 12 13 14 15 16 17 18 19 20 21 22 23 24 25 26 27 28 29 30 31 32 33 34 35

000
FTUS41 KRNK 292321
TAFBLF
TAF
KBLF 292321Z 3000/3024 21011KT P6SM OVC150
     FM300200 23010G18KT P6SM BKN100
     FM300600 25010KT P6SM -RA OVC035
     FM301100 27009G19KT 5SM -SHRA BR BKN020
     FM301600 29012KT P6SM OVC015
     FM302100 28011G22KT P6SM SCT020 BKN035=

USA.gov is the U.S. government's official web portal to all federal, state and local government web resources and services.